createdAt,value
2019-04-26T00:00:59.151Z,0.87
2019-04-26T00:03:42.576Z,1.00
2019-04-26T00:06:14.649Z,0.80
2019-04-26T00:08:49.289Z,0.93
2019-04-26T00:11:30.944Z,1.00
2019-04-26T00:14:29.302Z,0.97
2019-04-26T00:17:13.633Z,0.70
2019-04-26T00:19:44.587Z,0.70
2019-04-26T00:22:15.469Z,1.37
2019-04-26T00:24:46.289Z,0.70
2019-04-26T00:27:17.018Z,2.10
2019-04-26T00:29:48.367Z,1.05
2019-04-26T00:32:19.251Z,2.60
2019-04-26T00:34:50.078Z,1.80
2019-04-26T00:37:21.191Z,1.97
2019-04-26T00:39:52.043Z,1.03
2019-04-26T00:42:23.108Z,1.00
2019-04-26T00:44:54.728Z,1.12
2019-04-26T00:47:27.320Z,1.27
2019-04-26T00:49:58.588Z,0.73
2019-04-26T00:52:31.331Z,0.80
2019-04-26T00:55:02.682Z,1.57
2019-04-26T00:57:37.559Z,1.10
2019-04-26T01:00:09.526Z,2.00
2019-04-26T01:02:47.402Z,1.20
2019-04-26T01:05:18.926Z,2.20
2019-04-26T01:07:51.711Z,0.93
2019-04-26T01:10:23.786Z,0.90
2019-04-26T01:12:54.430Z,0.83
2019-04-26T01:15:25.125Z,1.00
2019-04-26T01:17:56.088Z,1.00
2019-04-26T01:20:29.098Z,0.83
2019-04-26T01:23:03.823Z,1.47
2019-04-26T01:25:52.454Z,1.52
2019-04-26T01:28:44.317Z,1.10
2019-04-26T01:31:16.175Z,0.90
2019-04-26T01:33:47.892Z,1.00
2019-04-26T01:36:20.521Z,0.90
2019-04-26T01:38:54.836Z,2.58
2019-04-26T01:41:35.792Z,1.63
2019-04-26T01:44:11.467Z,1.00
2019-04-26T01:46:45.322Z,1.10
2019-04-26T01:49:18.079Z,1.00
2019-04-26T01:52:11.993Z,2.87
2019-04-26T01:54:45.386Z,1.35
2019-04-26T01:57:17.394Z,1.30
2019-04-26T01:59:54.316Z,1.57
2019-04-26T02:02:45.567Z,1.60
2019-04-26T02:05:22.417Z,1.23
2019-04-26T02:07:53.963Z,1.40
2019-04-26T02:10:28.717Z,1.20
2019-04-26T02:13:00.609Z,1.20
2019-04-26T02:15:34.039Z,1.10
2019-04-26T02:18:05.193Z,1.60
2019-04-26T02:21:20.944Z,1.07
2019-04-26T02:24:06.315Z,1.90
2019-04-26T02:26:42.338Z,1.23
2019-04-26T02:29:17.478Z,1.55
2019-04-26T02:31:55.346Z,1.12
2019-04-26T02:34:28.977Z,1.03
2019-04-26T02:37:02.646Z,1.40
2019-04-26T02:39:38.706Z,2.63
2019-04-26T02:42:20.424Z,1.50
2019-04-26T02:45:20.998Z,1.70
2019-04-26T02:48:12.218Z,2.10
2019-04-26T02:50:51.484Z,1.02
2019-04-26T02:53:55.685Z,2.80
2019-04-26T02:56:40.126Z,1.50
2019-04-26T02:59:38.728Z,3.43
2019-04-26T03:02:33.245Z,1.17
2019-04-26T03:05:11.845Z,1.70
2019-04-26T03:08:18.928Z,1.77
2019-04-26T03:11:07.890Z,1.47
2019-04-26T03:14:01.261Z,2.50
2019-04-26T03:17:01.105Z,1.27
2019-04-26T03:19:51.764Z,2.03
2019-04-26T03:22:38.943Z,1.40
2019-04-26T03:25:43.211Z,1.87
2019-04-26T03:28:46.409Z,0.80
2019-04-26T03:31:53.572Z,1.30
2019-04-26T03:34:40.546Z,1.00
2019-04-26T03:38:08.294Z,3.20
2019-04-26T03:40:57.977Z,1.13
2019-04-26T03:44:18.571Z,2.00
2019-04-26T03:46:55.904Z,1.90
2019-04-26T03:50:03.943Z,1.30
2019-04-26T03:53:27.343Z,2.98
2019-04-26T03:56:52.164Z,1.97
2019-04-26T04:00:01.716Z,1.47
2019-04-26T04:02:55.412Z,1.53
2019-04-26T04:05:41.968Z,1.90
2019-04-26T04:08:20.145Z,3.10
2019-04-26T04:11:02.544Z,1.30
2019-04-26T04:13:59.837Z,1.63
2019-04-26T04:17:08.573Z,1.30
2019-04-26T04:20:29.207Z,1.70
2019-04-26T04:23:39.816Z,2.83
2019-04-26T04:26:12.144Z,1.20
2019-04-26T04:29:52.771Z,1.43
2019-04-26T04:32:36.620Z,2.37
2019-04-26T04:35:12.058Z,2.13
2019-04-26T04:38:09.250Z,1.43
2019-04-26T04:41:27.693Z,1.45
2019-04-26T04:44:34.025Z,1.77
2019-04-26T04:47:36.759Z,1.57
2019-04-26T04:50:32.212Z,1.40
2019-04-26T04:53:53.121Z,1.93
2019-04-26T04:56:43.744Z,1.77
2019-04-26T04:59:32.815Z,2.47
2019-04-26T05:02:28.830Z,2.70
2019-04-26T05:05:44.922Z,1.77
2019-04-26T05:08:48.870Z,1.53
2019-04-26T05:11:29.142Z,1.30
2019-04-26T05:15:28.645Z,2.10
2019-04-26T05:18:15.737Z,2.07
2019-04-26T05:21:27.675Z,2.37
2019-04-26T05:24:41.771Z,1.50
2019-04-26T05:28:06.196Z,2.60
2019-04-26T05:31:31.208Z,1.50
2019-04-26T05:34:52.744Z,1.80
2019-04-26T05:37:59.548Z,1.20
2019-04-26T05:41:03.156Z,1.60
2019-04-26T05:44:19.993Z,1.77
2019-04-26T05:47:40.324Z,1.40
2019-04-26T05:51:27.391Z,1.43
2019-04-26T05:54:52.356Z,1.50
2019-04-26T05:58:00.926Z,1.63
2019-04-26T06:01:25.923Z,2.20
2019-04-26T06:04:38.753Z,2.20
2019-04-26T06:07:38.955Z,1.67
2019-04-26T06:10:36.684Z,2.07
2019-04-26T06:14:03.243Z,3.23
2019-04-26T06:17:15.611Z,2.00
2019-04-26T06:20:22.010Z,1.63
2019-04-26T06:23:40.424Z,1.70
2019-04-26T06:26:38.841Z,1.60
2019-04-26T06:29:22.706Z,2.27
2019-04-26T06:32:13.841Z,2.37
2019-04-26T06:35:13.421Z,2.97
2019-04-26T06:38:27.437Z,1.90
2019-04-26T06:42:05.869Z,2.30
2019-04-26T06:45:46.334Z,1.72
2019-04-26T06:48:56.165Z,2.23
2019-04-26T06:51:37.049Z,3.37
2019-04-26T06:54:24.349Z,2.53
2019-04-26T06:58:03.431Z,1.70
2019-04-26T07:00:59.738Z,2.53
2019-04-26T07:03:52.441Z,2.20
2019-04-26T07:06:35.330Z,2.07
2019-04-26T07:09:11.872Z,3.07
2019-04-26T07:12:41.698Z,1.92
2019-04-26T07:15:51.324Z,2.03
2019-04-26T07:19:18.443Z,2.10
2019-04-26T07:22:35.596Z,2.25
2019-04-26T07:26:01.649Z,2.87
2019-04-26T07:29:09.311Z,2.00
2019-04-26T07:32:16.114Z,3.03
2019-04-26T07:35:15.645Z,2.17
2019-04-26T07:38:48.661Z,2.03
2019-04-26T07:42:25.571Z,3.17
2019-04-26T07:45:58.122Z,2.20
2019-04-26T07:49:42.010Z,2.17
2019-04-26T07:53:07.403Z,1.60
2019-04-26T07:56:02.307Z,1.93
2019-04-26T07:59:47.720Z,1.60
2019-04-26T08:02:57.022Z,2.13
2019-04-26T08:05:59.082Z,1.40
2019-04-26T08:08:39.981Z,1.37
2019-04-26T08:11:20.430Z,4.60
2019-04-26T08:14:10.711Z,1.20
2019-04-26T08:17:09.021Z,1.80
2019-04-26T08:19:48.646Z,1.30
2019-04-26T08:22:28.273Z,3.07
2019-04-26T08:24:56.532Z,1.20
2019-04-26T08:27:30.048Z,1.33
2019-04-26T08:30:12.743Z,1.00
2019-04-26T08:32:53.208Z,1.07
2019-04-26T08:35:30.281Z,1.03
2019-04-26T08:38:15.012Z,1.00
2019-04-26T08:40:41.860Z,0.93
2019-04-26T08:43:35.872Z,1.67
2019-04-26T08:46:28.378Z,0.80
2019-04-26T08:49:28.760Z,0.80
2019-04-26T08:52:13.674Z,0.77
2019-04-26T08:54:40.282Z,1.05
2019-04-26T08:57:12.858Z,0.60
2019-04-26T08:59:52.541Z,0.70
2019-04-26T09:02:44.838Z,0.80
2019-04-26T09:05:41.123Z,0.67
2019-04-26T09:08:15.425Z,1.07
2019-04-26T09:10:48.999Z,1.00
2019-04-26T09:13:22.571Z,0.60
2019-04-26T09:16:14.250Z,1.83
2019-04-26T09:18:52.673Z,1.30
2019-04-26T09:21:21.097Z,0.70
2019-04-26T09:24:08.548Z,1.30
2019-04-26T09:26:58.474Z,1.75
2019-04-26T09:29:36.410Z,0.93
2019-04-26T09:32:12.792Z,1.17
2019-04-26T09:34:43.606Z,0.80
2019-04-26T09:37:15.110Z,0.83
2019-04-26T09:39:46.228Z,0.60
2019-04-26T09:42:41.944Z,0.90
2019-04-26T09:45:34.632Z,0.90
2019-04-26T09:48:14.053Z,0.90
2019-04-26T09:50:49.559Z,0.98
2019-04-26T09:53:21.118Z,1.10
2019-04-26T09:55:51.913Z,1.50
2019-04-26T09:58:22.572Z,1.20
2019-04-26T10:00:53.485Z,1.30
2019-04-26T10:03:24.141Z,1.43
2019-04-26T10:05:55.836Z,1.50
2019-04-26T10:08:27.619Z,2.73
2019-04-26T10:10:58.294Z,1.33
2019-04-26T10:13:41.690Z,2.97
2019-04-26T10:16:18.478Z,2.17
2019-04-26T10:18:54.438Z,2.58
2019-04-26T10:21:25.195Z,2.37
2019-04-26T10:23:56.073Z,2.43
2019-04-26T10:26:28.037Z,1.40
2019-04-26T10:28:59.360Z,1.50
2019-04-26T10:31:32.192Z,2.70
2019-04-26T10:34:03.133Z,1.60
2019-04-26T10:36:34.026Z,1.53
2019-04-26T10:39:08.096Z,3.73
2019-04-26T10:41:39.280Z,2.02
2019-04-26T10:44:10.179Z,3.60
2019-04-26T10:46:41.094Z,1.70
2019-04-26T10:49:46.924Z,1.80
2019-04-26T10:52:27.454Z,2.77
2019-04-26T10:55:15.995Z,1.60
2019-04-26T10:57:49.324Z,3.30
2019-04-26T11:00:29.765Z,1.70
2019-04-26T11:03:04.463Z,1.97
2019-04-26T11:05:33.322Z,1.55
2019-04-26T11:08:04.466Z,1.60
2019-04-26T11:10:48.146Z,1.67
2019-04-26T11:13:10.357Z,2.50
2019-04-26T11:15:41.349Z,1.20
2019-04-26T11:18:12.255Z,1.50
2019-04-26T11:20:45.711Z,1.30
2019-04-26T11:23:15.699Z,1.97
2019-04-26T11:25:46.299Z,1.87
2019-04-26T11:28:21.392Z,1.60
2019-04-26T11:30:52.189Z,1.70
2019-04-26T11:33:22.350Z,1.63
2019-04-26T11:35:53.256Z,1.83
2019-04-26T11:38:26.937Z,1.47
2019-04-26T11:41:05.980Z,2.00
2019-04-26T11:43:29.108Z,1.47
2019-04-26T11:46:04.610Z,2.67
2019-04-26T11:48:32.392Z,2.77
2019-04-26T11:51:03.134Z,2.10
2019-04-26T11:53:36.325Z,3.00
2019-04-26T11:56:06.935Z,2.20
2019-04-26T11:58:37.550Z,2.60
2019-04-26T12:01:09.873Z,2.03
2019-04-26T12:03:43.744Z,1.87
2019-04-26T12:06:22.832Z,1.37
2019-04-26T12:09:06.889Z,0.70
2019-04-26T12:11:49.006Z,1.00
2019-04-26T12:14:19.711Z,0.97
2019-04-26T12:16:49.206Z,0.70
2019-04-26T12:19:18.185Z,0.60
2019-04-26T12:21:47.562Z,0.98
2019-04-26T12:24:18.266Z,1.13
2019-04-26T12:26:51.912Z,7.37
2019-04-26T12:29:21.916Z,0.53
2019-04-26T12:31:52.563Z,1.07
2019-04-26T12:34:23.280Z,1.60
2019-04-26T12:36:53.902Z,1.00
2019-04-26T12:39:24.711Z,1.00
2019-04-26T12:41:55.299Z,1.27
2019-04-26T12:44:28.058Z,1.10
2019-04-26T12:47:10.403Z,1.97
2019-04-26T12:49:41.321Z,4.47
2019-04-26T12:52:12.609Z,2.12
2019-04-26T12:54:44.527Z,1.62
2019-04-26T12:57:16.345Z,2.03
2019-04-26T12:59:47.887Z,1.72
2019-04-26T13:02:20.825Z,1.40
2019-04-26T13:04:51.175Z,1.50
2019-04-26T13:07:24.399Z,1.60
2019-04-26T13:10:31.277Z,2.03
2019-04-26T13:13:23.367Z,2.83
2019-04-26T13:16:21.677Z,2.60
2019-04-26T13:18:51.596Z,2.00
2019-04-26T13:21:22.539Z,1.90
2019-04-26T13:23:53.400Z,2.17
2019-04-26T13:26:24.017Z,1.80
2019-04-26T13:28:57.128Z,2.57
2019-04-26T13:31:31.387Z,2.30
2019-04-26T13:34:03.056Z,2.03
2019-04-26T13:36:31.859Z,2.73
2019-04-26T13:39:02.545Z,3.00
2019-04-26T13:41:34.958Z,4.35
2019-04-26T13:44:06.163Z,4.00
2019-04-26T13:46:55.723Z,2.40
2019-04-26T13:49:48.372Z,4.60
2019-04-26T13:52:20.508Z,3.57
2019-04-26T13:54:55.551Z,2.63
2019-04-26T13:57:23.846Z,3.07
2019-04-26T13:59:54.468Z,1.97
2019-04-26T14:02:25.111Z,2.50
2019-04-26T14:04:56.150Z,1.97
2019-04-26T14:07:26.833Z,2.53
2019-04-26T14:09:57.480Z,1.97
2019-04-26T14:12:28.225Z,2.13
2019-04-26T14:14:58.989Z,2.80
2019-04-26T14:17:30.839Z,2.10
2019-04-26T14:20:01.595Z,2.13
2019-04-26T14:22:40.989Z,2.33
2019-04-26T14:25:12.903Z,2.00
2019-04-26T14:27:49.939Z,1.67
2019-04-26T14:30:20.456Z,3.23
2019-04-26T14:32:55.872Z,1.70
2019-04-26T14:35:24.304Z,1.67
2019-04-26T14:37:54.938Z,1.60
2019-04-26T14:40:25.774Z,2.90
2019-04-26T14:43:06.615Z,3.17
2019-04-26T14:45:29.322Z,2.57
2019-04-26T14:48:03.973Z,3.00
2019-04-26T14:50:33.806Z,1.53
2019-04-26T14:53:04.688Z,1.77
2019-04-26T14:55:35.606Z,1.42
2019-04-26T14:58:07.251Z,1.30
2019-04-26T15:00:39.940Z,1.27
2019-04-26T15:03:30.305Z,1.30
2019-04-26T15:06:20.391Z,1.57
2019-04-26T15:08:53.171Z,1.40
2019-04-26T15:11:24.257Z,1.30
2019-04-26T15:13:55.233Z,1.47
2019-04-26T15:16:25.961Z,1.30
2019-04-26T15:18:57.250Z,1.50
2019-04-26T15:21:31.763Z,1.10
2019-04-26T15:24:00.688Z,1.20
2019-04-26T15:26:32.827Z,1.72
2019-04-26T15:29:04.558Z,1.33
2019-04-26T15:31:35.480Z,2.00
2019-04-26T15:34:06.741Z,1.63
2019-04-26T15:36:38.036Z,0.95
2019-04-26T15:39:21.291Z,2.10
2019-04-26T15:42:13.037Z,1.50
2019-04-26T15:45:03.457Z,1.12
2019-04-26T15:48:02.201Z,1.30
2019-04-26T15:50:40.982Z,1.53
2019-04-26T15:53:14.529Z,1.50
2019-04-26T15:55:44.424Z,1.60
2019-04-26T15:58:15.160Z,1.63
2019-04-26T16:00:46.218Z,1.60
2019-04-26T16:03:17.475Z,1.53
2019-04-26T16:05:48.053Z,1.63
2019-04-26T16:08:18.853Z,3.47
2019-04-26T16:10:50.686Z,1.27
2019-04-26T16:13:23.910Z,1.50
2019-04-26T16:15:54.043Z,1.83
2019-04-26T16:18:25.114Z,2.63
2019-04-26T16:20:56.428Z,2.03
2019-04-26T16:23:38.422Z,1.40
2019-04-26T16:25:59.872Z,1.67
2019-04-26T16:28:45.815Z,1.50
2019-04-26T16:31:35.793Z,1.50
2019-04-26T16:34:10.790Z,1.30
2019-04-26T16:36:45.157Z,1.22
2019-04-26T16:39:15.058Z,1.60
2019-04-26T16:41:46.180Z,1.35
2019-04-26T16:44:19.240Z,1.37
2019-04-26T16:46:53.921Z,1.40
2019-04-26T16:49:23.412Z,2.13
2019-04-26T16:52:02.133Z,7.93
2019-04-26T16:54:28.515Z,1.40
2019-04-26T16:57:06.678Z,1.50
2019-04-26T16:59:32.927Z,1.45
2019-04-26T17:02:04.190Z,1.33
2019-04-26T17:04:36.342Z,1.63
2019-04-26T17:07:07.082Z,1.47
2019-04-26T17:09:55.700Z,1.75
2019-04-26T17:12:14.877Z,2.00
2019-04-26T17:14:47.502Z,2.52
2019-04-26T17:17:17.014Z,3.03
2019-04-26T17:19:48.043Z,1.95
2019-04-26T17:22:41.979Z,2.27
2019-04-26T17:25:10.357Z,3.10
2019-04-26T17:27:45.943Z,1.70
2019-04-26T17:30:17.319Z,1.50
2019-04-26T17:32:51.524Z,2.20
2019-04-26T17:35:20.592Z,2.57
2019-04-26T17:37:51.529Z,2.10
2019-04-26T17:40:25.183Z,2.00
2019-04-26T17:42:54.965Z,2.17
2019-04-26T17:45:25.894Z,2.37
2019-04-26T17:47:56.873Z,2.40
2019-04-26T17:50:27.824Z,2.20
2019-04-26T17:52:58.401Z,2.63
2019-04-26T17:55:31.829Z,2.07
2019-04-26T17:58:11.818Z,2.10
2019-04-26T18:00:46.109Z,2.10
2019-04-26T18:03:14.804Z,1.73
2019-04-26T18:05:56.773Z,2.30
2019-04-26T18:08:36.241Z,1.70
2019-04-26T18:10:56.624Z,1.90
2019-04-26T18:13:27.322Z,2.43
2019-04-26T18:15:58.318Z,3.47
2019-04-26T18:18:53.526Z,2.00
2019-04-26T18:21:44.436Z,3.73
2019-04-26T18:24:15.643Z,2.57
2019-04-26T18:26:46.625Z,2.25
2019-04-26T18:29:17.425Z,2.60
2019-04-26T18:31:48.262Z,2.63
2019-04-26T18:34:19.170Z,3.33
2019-04-26T18:36:50.290Z,1.85
2019-04-26T18:39:22.754Z,2.30
2019-04-26T18:41:53.696Z,1.77
2019-04-26T18:44:35.804Z,1.97
2019-04-26T18:47:02.843Z,2.20
2019-04-26T18:49:33.454Z,3.17
2019-04-26T18:52:04.081Z,2.00
2019-04-26T18:54:57.667Z,1.77
2019-04-26T18:57:28.359Z,1.80
2019-04-26T18:59:59.067Z,1.97
2019-04-26T19:02:29.782Z,2.30
2019-04-26T19:05:00.394Z,2.03
2019-04-26T19:07:33.499Z,5.45
2019-04-26T19:10:05.573Z,2.03
2019-04-26T19:12:43.540Z,3.93
2019-04-26T19:15:36.999Z,2.20
2019-04-26T19:18:17.664Z,4.77
2019-04-26T19:20:54.679Z,2.70
2019-04-26T19:23:29.068Z,3.07
2019-04-26T19:26:01.700Z,1.50
2019-04-26T19:28:35.962Z,4.10
2019-04-26T19:31:06.565Z,2.47
2019-04-26T19:33:37.417Z,2.00
2019-04-26T19:36:08.604Z,4.83
2019-04-26T19:38:39.592Z,3.37
2019-04-26T19:41:12.034Z,2.77
2019-04-26T19:43:43.523Z,2.43
2019-04-26T19:46:32.965Z,4.57
2019-04-26T19:49:25.850Z,3.33
2019-04-26T19:52:03.976Z,2.62
2019-04-26T19:54:38.648Z,2.50
2019-04-26T19:57:33.410Z,2.67
2019-04-26T20:00:07.955Z,3.20
2019-04-26T20:02:39.137Z,3.08
2019-04-26T20:05:08.870Z,2.80
2019-04-26T20:07:39.489Z,3.33
2019-04-26T20:10:10.686Z,3.40
2019-04-26T20:12:41.696Z,2.73
2019-04-26T20:15:25.176Z,4.97
2019-04-26T20:17:45.293Z,6.37
2019-04-26T20:20:21.013Z,2.90
2019-04-26T20:22:48.349Z,3.60
2019-04-26T20:25:19.161Z,3.77
2019-04-26T20:27:53.677Z,5.45
2019-04-26T20:30:51.413Z,3.63
2019-04-26T20:33:22.459Z,4.87
2019-04-26T20:35:53.386Z,4.17
2019-04-26T20:38:24.447Z,3.40
2019-04-26T20:40:55.355Z,2.97
2019-04-26T20:43:26.766Z,2.67
2019-04-26T20:46:12.396Z,6.20
2019-04-26T20:48:31.504Z,3.53
2019-04-26T20:51:02.465Z,3.10
2019-04-26T20:53:40.121Z,2.97
2019-04-26T20:56:09.943Z,3.00
2019-04-26T20:58:43.139Z,2.70
2019-04-26T21:01:14.169Z,3.00
2019-04-26T21:03:46.169Z,2.20
2019-04-26T21:06:17.253Z,2.50
2019-04-26T21:08:48.240Z,3.67
2019-04-26T21:11:19.021Z,4.17
2019-04-26T21:13:49.641Z,2.80
2019-04-26T21:16:21.933Z,3.27
2019-04-26T21:18:52.798Z,2.67
2019-04-26T21:21:23.560Z,3.50
2019-04-26T21:23:54.365Z,3.40
2019-04-26T21:26:52.815Z,4.60
2019-04-26T21:29:52.446Z,3.80
2019-04-26T21:32:43.708Z,3.60
2019-04-26T21:35:16.493Z,3.93
2019-04-26T21:38:01.121Z,4.17
2019-04-26T21:40:40.565Z,4.87
2019-04-26T21:43:11.366Z,3.97
2019-04-26T21:45:44.041Z,3.92
2019-04-26T21:48:18.114Z,4.13
2019-04-26T21:50:47.806Z,5.53
2019-04-26T21:53:18.632Z,3.90
2019-04-26T21:55:49.576Z,4.70
2019-04-26T21:58:20.358Z,5.17
2019-04-26T22:01:11.071Z,6.30
2019-04-26T22:03:47.377Z,5.17
2019-04-26T22:06:14.358Z,6.22
2019-04-26T22:08:50.556Z,5.35
2019-04-26T22:11:23.154Z,4.10
2019-04-26T22:13:59.780Z,4.10
2019-04-26T22:16:45.606Z,5.33
2019-04-26T22:19:38.004Z,6.33
2019-04-26T22:22:23.210Z,4.97
2019-04-26T22:24:55.468Z,7.43
2019-04-26T22:27:26.487Z,5.40
2019-04-26T22:29:57.498Z,7.60
2019-04-26T22:32:28.212Z,5.90
2019-04-26T22:34:58.973Z,5.90
2019-04-26T22:37:30.343Z,6.00
2019-04-26T22:40:01.013Z,4.90
2019-04-26T22:42:39.935Z,4.47
2019-04-26T22:45:19.665Z,5.87
2019-04-26T22:47:57.856Z,4.90
2019-04-26T22:50:29.136Z,4.73
2019-04-26T22:52:59.897Z,5.27
2019-04-26T22:55:30.571Z,5.60
2019-04-26T22:58:03.149Z,5.60
2019-04-26T23:00:38.384Z,6.63
2019-04-26T23:03:09.624Z,6.40
2019-04-26T23:05:40.716Z,6.03
2019-04-26T23:08:13.465Z,5.63
2019-04-26T23:10:48.452Z,4.87
2019-04-26T23:13:37.776Z,5.40
2019-04-26T23:16:15.292Z,5.17
2019-04-26T23:19:05.079Z,7.17
2019-04-26T23:21:39.245Z,5.07
2019-04-26T23:24:11.427Z,4.20
2019-04-26T23:26:45.225Z,4.80
2019-04-26T23:29:18.071Z,4.00
2019-04-26T23:31:47.693Z,4.60
2019-04-26T23:34:18.575Z,4.63
2019-04-26T23:36:50.239Z,4.92
2019-04-26T23:39:22.829Z,4.10
2019-04-26T23:41:54.065Z,5.47
2019-04-26T23:44:24.839Z,4.67
2019-04-26T23:47:01.242Z,5.80
2019-04-26T23:49:28.021Z,4.80
2019-04-26T23:51:58.552Z,4.30
2019-04-26T23:54:32.242Z,4.47
2019-04-26T23:57:02.921Z,4.93
2019-04-26T23:59:33.960Z,6.10
